Dixfield, Maine
Current Conditions -  °F | °C
As of 9:55 PM on Saturday 25 Oct 2014 (Local Time) from KLEW Reporting Station
Overcast Overcast  
Wind Chill: 46°   Ceiling: 7500
Heat Index: 48°   Visibility: 10mi
Dew Point: 41°   Wind: 5mph
Humidity: 76%   Direction: 160°SSE
Pressure: 29.48"   Gusts: NA
Location:  44.53°N, 70.45°W
Report Text: KLEW 260155Z AUTO 16004KT 10SM BKN075 OVC095 09/05 A2948 RMK AO1
Loading
Personal Weather Stations






























Interactive Weather Map
Tropical Storm Tracking
New forecast layout! Learn more

10-Day Weather Forecast

Advertisements
Track Severe Weather on mobile